createdAt,value
2023-05-21T00:05:24.546Z,23.06
2023-05-21T00:08:31.424Z,22.69
2023-05-21T00:11:37.548Z,22.50
2023-05-21T00:14:44.364Z,22.78
2023-05-21T00:17:50.665Z,22.39
2023-05-21T00:21:00.120Z,22.45
2023-05-21T00:24:06.245Z,22.94
2023-05-21T00:27:13.441Z,22.44
2023-05-21T00:30:19.671Z,22.33
2023-05-21T00:33:26.814Z,22.51
2023-05-21T00:36:56.046Z,22.40
2023-05-21T00:40:05.297Z,22.65
2023-05-21T00:43:11.681Z,22.56
2023-05-21T00:46:23.076Z,22.50
2023-05-21T00:49:29.522Z,22.67
2023-05-21T00:52:42.505Z,22.74
2023-05-21T00:55:49.647Z,21.77
2023-05-21T00:58:59.136Z,22.67
2023-05-21T01:02:07.059Z,23.06
2023-05-21T01:05:16.621Z,23.87
2023-05-21T01:08:35.193Z,23.94
2023-05-21T01:11:48.158Z,25.81
2023-05-21T01:14:59.641Z,25.22
2023-05-21T01:18:14.653Z,24.57
2023-05-21T01:21:44.183Z,24.04
2023-05-21T01:25:15.315Z,24.05
2023-05-21T01:28:37.121Z,23.78
2023-05-21T01:32:16.630Z,23.97
2023-05-21T01:35:44.942Z,23.60
2023-05-21T01:39:18.199Z,23.51
2023-05-21T01:42:48.847Z,23.30
2023-05-21T01:46:00.441Z,23.98
2023-05-21T01:49:11.159Z,23.57
2023-05-21T01:52:21.700Z,23.87
2023-05-21T01:55:28.481Z,23.58
2023-05-21T01:58:38.495Z,23.84
2023-05-21T02:01:44.652Z,24.76
2023-05-21T02:04:51.920Z,24.59
2023-05-21T02:08:00.462Z,24.39
2023-05-21T02:11:08.414Z,24.03
2023-05-21T02:14:17.170Z,23.60
2023-05-21T02:17:24.798Z,23.49
2023-05-21T02:20:38.830Z,23.20
2023-05-21T02:23:45.738Z,22.95
2023-05-21T02:26:52.749Z,23.26
2023-05-21T02:30:15.021Z,22.83
2023-05-21T02:33:22.274Z,21.82
2023-05-21T02:36:33.551Z,22.69
2023-05-21T02:39:40.902Z,21.95
2023-05-21T02:42:47.633Z,22.88
2023-05-21T02:46:09.708Z,26.92
2023-05-21T02:49:30.689Z,25.00
2023-05-21T02:52:42.675Z,23.85
2023-05-21T02:55:49.462Z,22.66
2023-05-21T02:58:55.547Z,22.06
2023-05-21T03:02:05.203Z,21.43
2023-05-21T03:05:22.876Z,21.82
2023-05-21T03:08:30.462Z,22.07
2023-05-21T03:11:36.607Z,21.69
2023-05-21T03:14:44.420Z,21.26
2023-05-21T03:17:56.066Z,22.22
2023-05-21T03:21:13.555Z,21.80
2023-05-21T03:24:35.573Z,22.13
2023-05-21T03:28:00.389Z,21.49
2023-05-21T03:31:54.786Z,21.18
2023-05-21T03:35:18.718Z,20.71
2023-05-21T03:38:25.879Z,21.19
2023-05-21T03:41:34.273Z,20.32
2023-05-21T03:44:47.730Z,19.97
2023-05-21T03:48:25.882Z,19.71
2023-05-21T03:51:35.384Z,19.82
2023-05-21T03:54:41.593Z,19.30
2023-05-21T03:57:49.740Z,19.27
2023-05-21T04:04:57.835Z,18.04
2023-05-21T04:08:14.607Z,18.07
2023-05-21T04:11:21.243Z,17.77
2023-05-21T04:14:28.366Z,16.95
2023-05-21T04:17:34.915Z,16.42
2023-05-21T04:20:43.202Z,16.16
2023-05-21T04:23:54.575Z,15.66
2023-05-21T04:27:11.224Z,15.18
2023-05-21T04:30:17.320Z,15.26
2023-05-21T04:33:33.528Z,14.58
2023-05-21T04:36:39.623Z,14.81
2023-05-21T04:39:49.956Z,14.64
2023-05-21T04:43:07.740Z,13.84
2023-05-21T04:46:41.910Z,13.29
2023-05-21T04:49:51.253Z,13.45
2023-05-21T04:52:59.068Z,12.88
2023-05-21T04:56:10.186Z,12.78
2023-05-21T04:59:17.782Z,12.95
2023-05-21T05:02:38.920Z,12.45
2023-05-21T05:06:00.529Z,12.17
2023-05-21T05:09:25.387Z,12.42
2023-05-21T05:12:49.860Z,12.69
2023-05-21T05:16:13.246Z,12.46
2023-05-21T05:19:36.413Z,11.94
2023-05-21T05:22:57.494Z,12.41
2023-05-21T05:26:18.753Z,11.96
2023-05-21T05:29:42.382Z,12.48
2023-05-21T05:33:08.956Z,11.90
2023-05-21T05:36:30.143Z,11.99
2023-05-21T05:39:51.514Z,12.08
2023-05-21T05:43:12.676Z,12.21
2023-05-21T05:46:36.572Z,12.14
2023-05-21T05:50:00.574Z,11.65
2023-05-21T05:53:21.925Z,11.19
2023-05-21T05:56:42.818Z,11.71
2023-05-21T06:00:05.227Z,11.09
2023-05-21T06:03:43.070Z,11.70
2023-05-21T06:07:07.559Z,11.05
2023-05-21T06:10:29.821Z,11.24
2023-05-21T06:13:58.413Z,11.47
2023-05-21T06:17:19.420Z,10.63
2023-05-21T06:20:44.252Z,10.66
2023-05-21T06:24:25.783Z,9.88
2023-05-21T06:27:53.215Z,10.38
2023-05-21T06:31:04.684Z,9.96
2023-05-21T06:34:13.457Z,10.37
2023-05-21T06:37:26.470Z,9.96
2023-05-21T06:40:34.023Z,9.68
2023-05-21T06:43:40.027Z,10.17
2023-05-21T06:47:19.532Z,9.96
2023-05-21T06:50:35.302Z,10.35
2023-05-21T06:53:58.825Z,10.05
2023-05-21T06:57:06.546Z,9.56
2023-05-21T07:00:16.480Z,10.13
2023-05-21T07:03:23.458Z,9.25
2023-05-21T07:06:47.383Z,9.80
2023-05-21T07:10:13.712Z,9.83
2023-05-21T07:13:34.750Z,9.50
2023-05-21T07:16:57.026Z,9.02
2023-05-21T07:20:18.416Z,9.02
2023-05-21T07:23:28.850Z,9.01
2023-05-21T07:26:37.841Z,8.87
2023-05-21T07:29:44.717Z,9.01
2023-05-21T07:32:50.801Z,8.92
2023-05-21T07:35:58.239Z,8.55
2023-05-21T07:39:05.430Z,8.97
2023-05-21T07:42:16.803Z,8.96
2023-05-21T07:45:26.170Z,8.71
2023-05-21T07:48:40.827Z,8.01
2023-05-21T07:51:51.772Z,8.35
2023-05-21T07:54:59.260Z,8.58
2023-05-21T07:58:08.221Z,8.03
2023-05-21T08:01:31.411Z,7.52
2023-05-21T08:04:52.898Z,7.53
2023-05-21T08:08:20.943Z,7.55
2023-05-21T08:11:44.288Z,6.97
2023-05-21T08:15:09.672Z,6.93
2023-05-21T08:18:36.532Z,6.40
2023-05-21T08:21:58.058Z,6.54
2023-05-21T08:25:19.430Z,6.31
2023-05-21T08:28:42.497Z,6.62
2023-05-21T08:32:18.817Z,6.37
2023-05-21T08:35:40.335Z,6.08
2023-05-21T08:39:29.772Z,5.44
2023-05-21T08:42:53.237Z,5.71
2023-05-21T08:46:27.162Z,5.21
2023-05-21T08:49:56.523Z,6.17
2023-05-21T08:53:27.426Z,5.85
2023-05-21T08:56:51.302Z,5.66
2023-05-21T09:00:21.140Z,5.69
2023-05-21T09:03:44.582Z,5.74
2023-05-21T09:07:17.257Z,5.90
2023-05-21T09:10:56.332Z,5.98
2023-05-21T09:14:10.420Z,5.65
2023-05-21T09:17:38.037Z,5.94
2023-05-21T09:20:59.920Z,5.97
2023-05-21T09:24:25.032Z,5.77
2023-05-21T09:27:32.118Z,5.46
2023-05-21T09:30:39.484Z,5.67
2023-05-21T09:33:51.110Z,5.95
2023-05-21T09:37:08.524Z,6.15
2023-05-21T09:40:24.936Z,5.79
2023-05-21T09:43:34.010Z,5.60
2023-05-21T09:46:44.803Z,5.47
2023-05-21T09:50:06.226Z,5.68
2023-05-21T09:53:27.488Z,5.39
2023-05-21T09:56:51.289Z,5.65
2023-05-21T10:00:21.660Z,5.34
2023-05-21T10:03:45.467Z,5.30
2023-05-21T10:07:07.160Z,5.32
2023-05-21T10:10:31.244Z,5.24
2023-05-21T10:13:48.250Z,5.35
2023-05-21T10:16:57.822Z,4.84
2023-05-21T10:20:06.694Z,4.86
2023-05-21T10:23:13.987Z,4.90
2023-05-21T10:26:23.733Z,5.17
2023-05-21T10:29:49.194Z,4.68
2023-05-21T10:33:12.024Z,4.86
2023-05-21T10:36:35.069Z,4.64
2023-05-21T10:39:57.333Z,4.46
2023-05-21T10:43:48.642Z,4.68
2023-05-21T10:47:46.650Z,4.69
2023-05-21T10:51:27.054Z,4.54
2023-05-21T10:55:08.172Z,4.54
2023-05-21T10:59:05.785Z,3.93
2023-05-21T11:02:19.330Z,4.26
2023-05-21T11:05:44.135Z,4.02
2023-05-21T11:08:55.504Z,4.30
2023-05-21T11:12:05.033Z,4.37
2023-05-21T11:15:19.478Z,4.26
2023-05-21T11:19:01.020Z,4.32
2023-05-21T11:22:26.201Z,4.00
2023-05-21T11:25:35.637Z,4.09
2023-05-21T11:28:42.622Z,3.99
2023-05-21T11:31:51.556Z,4.24
2023-05-21T11:35:05.091Z,4.28
2023-05-21T11:38:16.213Z,4.35
2023-05-21T11:41:24.623Z,4.59
2023-05-21T11:44:45.286Z,4.56
2023-05-21T11:47:53.077Z,4.64
2023-05-21T11:51:03.762Z,4.86
2023-05-21T11:54:15.637Z,4.44
2023-05-21T11:57:22.247Z,4.29
2023-05-21T12:00:29.325Z,4.44
2023-05-21T12:03:38.525Z,4.71
2023-05-21T12:06:50.916Z,4.56
2023-05-21T12:09:57.005Z,4.81
2023-05-21T12:13:05.623Z,4.58
2023-05-21T12:16:12.319Z,5.11
2023-05-21T12:19:22.464Z,4.62
2023-05-21T12:22:31.230Z,4.68
2023-05-21T12:25:38.187Z,4.72
2023-05-21T12:28:44.602Z,4.82
2023-05-21T12:31:53.047Z,4.76
2023-05-21T12:35:00.312Z,4.59
2023-05-21T12:38:11.270Z,4.88
2023-05-21T12:41:21.649Z,4.98
2023-05-21T12:44:36.620Z,4.98
2023-05-21T12:47:42.904Z,5.07
2023-05-21T12:50:50.069Z,5.02
2023-05-21T12:53:58.849Z,5.10
2023-05-21T12:57:16.678Z,5.29
2023-05-21T13:00:27.657Z,5.40
2023-05-21T13:03:36.292Z,5.12
2023-05-21T13:06:48.450Z,5.42
2023-05-21T13:09:59.884Z,5.01
2023-05-21T13:13:06.097Z,5.38
2023-05-21T13:16:13.316Z,5.21
2023-05-21T13:19:19.720Z,5.11
2023-05-21T13:22:26.935Z,5.36
2023-05-21T13:25:43.163Z,5.25
2023-05-21T13:29:04.133Z,5.14
2023-05-21T13:32:26.256Z,5.28
2023-05-21T13:35:34.958Z,5.50
2023-05-21T13:38:40.976Z,5.31
2023-05-21T13:41:50.682Z,5.38
2023-05-21T13:44:57.316Z,5.33
2023-05-21T13:48:04.423Z,5.51
2023-05-21T13:51:37.912Z,5.57
2023-05-21T13:55:00.204Z,5.30
2023-05-21T13:58:24.085Z,4.97
2023-05-21T14:01:45.807Z,5.09
2023-05-21T14:05:07.219Z,5.34
2023-05-21T14:08:29.806Z,5.13
2023-05-21T14:11:51.215Z,5.21
2023-05-21T14:15:03.201Z,5.18
2023-05-21T14:18:12.766Z,5.30
2023-05-21T14:21:19.642Z,5.36
2023-05-21T14:24:25.862Z,5.50
2023-05-21T14:27:32.847Z,5.10
2023-05-21T14:30:41.627Z,5.29
2023-05-21T14:33:48.936Z,5.37
2023-05-21T14:36:56.509Z,5.63
2023-05-21T14:40:03.605Z,5.21
2023-05-21T14:43:09.869Z,5.25
2023-05-21T14:46:19.627Z,5.24
2023-05-21T14:49:40.654Z,5.26
2023-05-21T14:53:02.381Z,5.70
2023-05-21T14:56:27.360Z,5.86
2023-05-21T14:59:48.457Z,5.86
2023-05-21T15:03:13.174Z,6.26
2023-05-21T15:06:36.104Z,5.92
2023-05-21T15:09:57.408Z,5.82
2023-05-21T15:13:18.615Z,6.23
2023-05-21T15:16:39.853Z,6.38
2023-05-21T15:20:11.154Z,6.39
2023-05-21T15:23:35.393Z,6.32
2023-05-21T15:27:03.517Z,6.40
2023-05-21T15:30:27.616Z,5.87
2023-05-21T15:33:52.240Z,6.11
2023-05-21T15:37:22.155Z,5.92
2023-05-21T15:40:44.587Z,5.63
2023-05-21T15:44:05.793Z,5.67
2023-05-21T15:47:26.888Z,5.32
2023-05-21T15:50:48.229Z,5.90
2023-05-21T15:54:12.063Z,5.63
2023-05-21T15:57:33.877Z,6.17
2023-05-21T16:00:54.984Z,5.28
2023-05-21T16:04:01.925Z,5.48
2023-05-21T16:07:09.453Z,5.32
2023-05-21T16:10:19.235Z,5.38
2023-05-21T16:13:25.695Z,5.25
2023-05-21T16:16:32.836Z,5.42
2023-05-21T16:19:41.168Z,5.36
2023-05-21T16:22:48.670Z,5.61
2023-05-21T16:25:57.492Z,5.73
2023-05-21T16:29:18.154Z,5.51
2023-05-21T16:32:39.954Z,5.30
2023-05-21T16:35:46.957Z,5.62
2023-05-21T16:38:53.393Z,5.60
2023-05-21T16:42:17.069Z,5.63
2023-05-21T16:45:43.343Z,5.61
2023-05-21T16:49:13.679Z,5.65
2023-05-21T16:52:43.729Z,5.48
2023-05-21T16:56:06.631Z,5.44
2023-05-21T16:59:16.278Z,5.87
2023-05-21T17:02:22.539Z,6.31
2023-05-21T17:05:29.677Z,6.38
2023-05-21T17:08:36.770Z,5.98
2023-05-21T17:11:45.228Z,6.06
2023-05-21T17:14:59.082Z,5.76
2023-05-21T17:18:06.462Z,5.80
2023-05-21T17:21:13.270Z,6.09
2023-05-21T17:24:20.369Z,5.95
2023-05-21T17:27:26.651Z,7.16
2023-05-21T17:30:43.785Z,7.36
2023-05-21T17:37:23.551Z,6.41
2023-05-21T17:40:30.504Z,5.82
2023-05-21T17:43:36.713Z,5.64
2023-05-21T17:46:43.966Z,5.70
2023-05-21T17:49:50.178Z,5.68
2023-05-21T17:52:59.694Z,6.02
2023-05-21T17:56:11.593Z,5.74
2023-05-21T17:59:19.026Z,5.88
2023-05-21T18:02:26.361Z,6.13
2023-05-21T18:05:36.721Z,5.72
2023-05-21T18:08:45.443Z,5.98
2023-05-21T18:11:52.565Z,6.12
2023-05-21T18:15:20.711Z,6.17
2023-05-21T18:18:31.242Z,6.22
2023-05-21T18:21:41.555Z,6.70
2023-05-21T18:24:57.662Z,6.86
2023-05-21T18:28:03.886Z,6.56
2023-05-21T18:31:10.850Z,6.99
2023-05-21T18:34:17.770Z,7.03
2023-05-21T18:37:24.795Z,7.28
2023-05-21T18:40:55.774Z,7.11
2023-05-21T18:44:16.722Z,6.93
2023-05-21T18:47:43.247Z,7.30
2023-05-21T18:51:04.561Z,7.60
2023-05-21T18:54:32.726Z,7.28
2023-05-21T18:57:56.366Z,7.53
2023-05-21T19:01:09.777Z,7.83
2023-05-21T19:04:31.303Z,7.42
2023-05-21T19:07:38.146Z,7.20
2023-05-21T19:10:45.716Z,6.98
2023-05-21T19:14:03.889Z,6.64
2023-05-21T19:17:16.732Z,6.80
2023-05-21T19:20:28.231Z,6.89
2023-05-21T19:23:53.981Z,7.06
2023-05-21T19:27:15.155Z,7.33
2023-05-21T19:30:38.981Z,7.43
2023-05-21T19:34:00.198Z,7.33
2023-05-21T19:37:22.132Z,7.90
2023-05-21T19:40:43.484Z,7.14
2023-05-21T19:44:04.517Z,6.81
2023-05-21T19:47:14.179Z,6.97
2023-05-21T19:50:20.810Z,6.92
2023-05-21T19:53:28.131Z,6.77
2023-05-21T19:56:34.111Z,6.91
2023-05-21T19:59:41.177Z,6.81
2023-05-21T20:02:50.063Z,6.66
2023-05-21T20:05:57.564Z,6.63
2023-05-21T20:09:19.109Z,6.35
2023-05-21T20:12:40.547Z,7.51
2023-05-21T20:16:05.088Z,7.65
2023-05-21T20:19:32.235Z,8.36
2023-05-21T20:22:53.370Z,7.95
2023-05-21T20:26:15.325Z,6.96
2023-05-21T20:29:22.178Z,6.77
2023-05-21T20:32:31.527Z,6.66
2023-05-21T20:35:58.665Z,7.07
2023-05-21T20:39:06.605Z,6.42
2023-05-21T20:42:15.291Z,6.89
2023-05-21T20:45:39.690Z,6.90
2023-05-21T20:48:45.920Z,6.67
2023-05-21T20:51:55.458Z,6.69
2023-05-21T20:55:04.832Z,6.34
2023-05-21T20:58:14.915Z,6.27
2023-05-21T21:01:21.835Z,6.51
2023-05-21T21:04:28.914Z,6.19
2023-05-21T21:07:38.840Z,6.44
2023-05-21T21:10:47.268Z,6.35
2023-05-21T21:13:53.583Z,6.06
2023-05-21T21:17:04.327Z,6.32
2023-05-21T21:20:14.071Z,6.88
2023-05-21T21:23:23.742Z,6.54
2023-05-21T21:26:29.959Z,6.61
2023-05-21T21:29:41.710Z,6.33
2023-05-21T21:33:10.001Z,5.96
2023-05-21T21:36:42.992Z,6.22
2023-05-21T21:40:07.649Z,6.22
2023-05-21T21:43:14.888Z,5.78
2023-05-21T21:46:21.204Z,5.61
2023-05-21T21:49:27.916Z,6.04
2023-05-21T21:52:36.530Z,5.95
2023-05-21T21:55:46.821Z,6.23
2023-05-21T21:58:52.768Z,6.45
2023-05-21T22:02:06.837Z,6.46
2023-05-21T22:05:34.724Z,6.62
2023-05-21T22:08:41.685Z,6.38
2023-05-21T22:11:51.130Z,6.21
2023-05-21T22:14:59.264Z,5.89
2023-05-21T22:18:31.947Z,6.09
2023-05-21T22:22:05.098Z,5.96
2023-05-21T22:25:26.268Z,6.04
2023-05-21T22:28:50.652Z,6.27
2023-05-21T22:32:11.657Z,6.16
2023-05-21T22:35:32.487Z,6.07
2023-05-21T22:38:53.381Z,5.98
2023-05-21T22:42:14.437Z,6.27
2023-05-21T22:45:41.052Z,6.26
2023-05-21T22:49:02.144Z,6.11
2023-05-21T22:52:24.435Z,6.05
2023-05-21T22:55:45.397Z,5.79
2023-05-21T22:59:06.278Z,6.23
2023-05-21T23:02:36.475Z,6.29
2023-05-21T23:05:46.015Z,6.08
2023-05-21T23:08:52.273Z,6.10
2023-05-21T23:11:59.378Z,6.29
2023-05-21T23:15:07.941Z,6.31
2023-05-21T23:18:17.846Z,6.50
2023-05-21T23:21:25.327Z,6.47
2023-05-21T23:24:46.328Z,6.53
2023-05-21T23:28:07.584Z,6.58
2023-05-21T23:31:29.441Z,6.67
2023-05-21T23:34:53.134Z,6.72
2023-05-21T23:38:15.930Z,6.68
2023-05-21T23:41:36.999Z,6.84
2023-05-21T23:44:44.790Z,6.93
2023-05-21T23:47:51.368Z,6.45
2023-05-21T23:51:01.200Z,6.24
2023-05-21T23:54:08.336Z,6.11
2023-05-21T23:57:18.006Z,5.98
